Time;durP1;ratioP1;P1;durP2;ratioP2;P2;SDS_P1;SDS_P2;PMS_P1;PMS_P2;Temp;Humidity;BMP_temperature;BMP_pressure;BME280_temperature;BME280_humidity;BME280_pressure;Samples;Min_cycle;Max_cycle;Signal;HPM_P1;HPM_P2
2024/01/03 08:55:13;;;;;;;5.50;3.10;;;;;;;3.19;77.92;97274.21;103027;1286;600157;-23
2024/01/03 08:57:40;;;;;;;5.60;3.70;;;;;;;3.09;77.87;97268.69;104870;1270;61149;-23
2024/01/03 09:00:09;;;;;;;8.80;5.30;;;;;;;2.79;78.78;97264.27;104821;1266;61200;-26
2024/01/03 09:02:36;;;;;;;5.40;3.70;;;;;;;2.60;79.58;97267.13;104907;1265;72237;-26
2024/01/03 09:05:05;;;;;;;6.20;3.40;;;;;;;2.79;79.51;97260.14;104700;1266;74310;-26
2024/01/03 09:07:32;;;;;;;5.30;3.80;;;;;;;3.23;77.90;97256.02;104833;1266;73288;-24
2024/01/03 09:10:00;;;;;;;6.80;4.70;;;;;;;3.23;77.54;97252.27;104726;1263;162961;-26
2024/01/03 09:12:29;;;;;;;10.40;6.50;;;;;;;3.00;78.02;97239.16;105444;1258;62228;-24
2024/01/03 09:14:57;;;;;;;13.80;7.10;;;;;;;2.70;79.25;97245.08;105653;1256;72195;-25
2024/01/03 09:17:25;;;;;;;6.70;4.00;;;;;;;2.50;80.06;97236.20;105489;1257;76310;-26
2024/01/03 09:19:52;;;;;;;5.60;3.40;;;;;;;2.78;79.94;97239.67;105623;1253;72701;-25
2024/01/03 09:22:20;;;;;;;7.20;3.90;;;;;;;3.19;78.38;97237.11;105488;1254;61222;-26
2024/01/03 09:24:48;;;;;;;5.90;3.70;;;;;;;3.20;77.93;97230.24;105678;1254;61106;-24
2024/01/03 09:27:15;;;;;;;6.80;4.20;;;;;;;2.87;78.87;97226.12;105534;1257;71768;-24
2024/01/03 09:29:43;;;;;;;5.60;3.40;;;;;;;2.67;79.69;97223.05;105524;1257;74424;-25
2024/01/03 09:32:11;;;;;;;5.00;3.40;;;;;;;2.54;80.64;97222.52;105570;1253;74611;-26
2024/01/03 09:34:39;;;;;;;6.00;4.00;;;;;;;3.07;79.29;97223.91;105842;1253;61442;-26
2024/01/03 09:37:07;;;;;;;5.30;3.70;;;;;;;3.21;78.16;97218.67;105902;1252;61169;-25
2024/01/03 09:39:35;;;;;;;5.30;4.20;;;;;;;3.11;78.20;97211.01;105861;1254;73000;-25
2024/01/03 09:42:03;;;;;;;4.60;3.00;;;;;;;2.91;78.87;97206.15;105612;1252;73617;-25
2024/01/03 09:44:31;;;;;;;7.50;4.70;;;;;;;2.60;80.16;97203.55;105568;1254;72700;-25
2024/01/03 09:46:59;;;;;;;6.90;4.60;;;;;;;2.89;79.89;97199.40;105423;1256;61158;-25
2024/01/03 09:49:26;;;;;;;8.90;5.70;;;;;;;3.20;78.49;97194.52;105459;1253;61065;-24
2024/01/03 09:51:55;;;;;;;7.50;5.10;;;;;;;3.18;78.16;97196.44;105683;1258;72829;-24
2024/01/03 09:54:22;;;;;;;7.90;3.70;;;;;;;2.97;78.63;97190.67;105601;1258;74319;-25
2024/01/03 09:56:51;;;;;;;5.70;3.20;;;;;;;2.65;79.77;97177.27;105461;1253;72663;-24
2024/01/03 09:59:19;;;;;;;7.00;3.70;;;;;;;2.82;79.89;97173.92;105435;1254;61017;-24
2024/01/03 10:01:58;;;;;;;6.20;3.80;;;;;;;3.10;78.70;97168.58;105461;1253;61157;-24
2024/01/03 10:04:26;;;;;;;10.60;4.50;;;;;;;3.03;78.63;97166.56;105159;1253;73012;-24
2024/01/03 10:06:54;;;;;;;5.20;3.40;;;;;;;2.86;79.24;97165.90;105466;1258;73552;-24
2024/01/03 10:09:23;;;;;;;8.80;4.50;;;;;;;2.58;80.00;97164.63;105494;1256;72956;-25
2024/01/03 10:11:52;;;;;;;3.40;2.40;;;;;;;2.70;80.40;97162.35;105227;1257;63322;-24
2024/01/03 10:14:24;;;;;;;8.40;3.60;;;;;;;3.18;78.52;97159.02;105505;1253;61110;-24
2024/01/03 10:16:52;;;;;;;7.50;4.10;;;;;;;3.24;77.91;97153.21;105459;1259;71048;-24
2024/01/03 10:19:20;;;;;;;5.60;3.30;;;;;;;3.06;78.35;97146.64;105639;1253;73107;-25
2024/01/03 10:21:55;;;;;;;5.60;3.30;;;;;;;2.78;79.23;97139.42;105688;1259;72803;-24
2024/01/03 10:24:24;;;;;;;6.80;4.00;;;;;;;2.60;80.13;97137.25;105590;1258;61254;-24
2024/01/03 10:26:54;;;;;;;4.30;2.90;;;;;;;3.10;79.10;97133.98;105451;1258;61181;-24
2024/01/03 10:29:22;;;;;;;4.60;3.00;;;;;;;3.26;77.93;97123.73;105265;1253;74562;-24
2024/01/03 10:31:51;;;;;;;8.00;3.90;;;;;;;3.19;77.98;97116.92;105361;1253;73754;-24
2024/01/03 10:34:23;;;;;;;5.40;3.40;;;;;;;2.97;78.37;97110.34;105451;1255;72660;-24
2024/01/03 10:36:53;;;;;;;4.90;3.20;;;;;;;2.76;79.09;97105.86;105550;1253;61155;-24
2024/01/03 10:39:22;;;;;;;8.30;2.90;;;;;;;2.79;79.86;97097.56;105692;1255;61661;-24
2024/01/03 10:41:52;;;;;;;6.20;4.20;;;;;;;3.32;78.22;97090.00;105440;1253;72880;-24
2024/01/03 10:44:21;;;;;;;5.40;3.50;;;;;;;3.49;77.20;97079.72;105500;1253;74367;-24
2024/01/03 10:46:49;;;;;;;6.80;3.60;;;;;;;3.28;77.50;97074.88;105460;1253;72658;-24
2024/01/03 10:49:17;;;;;;;5.90;3.10;;;;;;;3.05;78.04;97068.52;105465;1257;61161;-24
2024/01/03 10:51:50;;;;;;;3.90;2.40;;;;;;;2.78;79.24;97058.77;105585;1256;62045;-24
2024/01/03 10:54:20;;;;;;;5.20;2.30;;;;;;;3.15;78.42;97054.36;105429;1253;72923;-24
2024/01/03 10:56:51;;;;;;;2.90;2.10;;;;;;;3.31;77.46;97043.29;105211;1254;73130;-24
2024/01/03 10:59:25;;;;;;;3.00;2.40;;;;;;;3.03;78.13;97042.48;105343;1260;72635;-24
2024/01/03 11:01:57;;;;;;;5.40;3.30;;;;;;;2.79;79.13;97041.20;105420;1253;61160;-24
2024/01/03 11:04:33;;;;;;;3.80;2.60;;;;;;;2.55;80.21;97036.92;105703;1254;61106;-25
2024/01/03 11:07:05;;;;;;;5.80;2.20;;;;;;;2.82;79.96;97030.85;105674;1259;73018;-24
2024/01/03 11:09:33;;;;;;;6.40;3.50;;;;;;;3.22;78.52;97030.98;105554;1253;73129;-25
2024/01/03 11:12:08;;;;;;;4.60;2.90;;;;;;;3.24;78.14;97028.42;105692;1260;72674;-24
2024/01/03 11:14:36;;;;;;;5.50;2.70;;;;;;;3.05;78.45;97027.05;105681;1254;61122;-24
2024/01/03 11:17:06;;;;;;;4.30;2.30;;;;;;;2.85;79.21;97022.38;105645;1257;61984;-24
2024/01/03 11:19:34;;;;;;;4.40;2.50;;;;;;;2.60;80.42;97012.20;105468;1259;71805;-26
2024/01/03 11:22:05;;;;;;;5.30;3.60;;;;;;;3.02;79.86;97012.41;105694;1253;74687;-25
2024/01/03 11:24:33;;;;;;;7.70;4.00;;;;;;;3.45;78.14;97010.20;105371;1254;72290;-25
2024/01/03 11:27:04;;;;;;;7.30;4.50;;;;;;;3.28;77.95;96995.42;105432;1257;61033;-24
2024/01/03 11:29:38;;;;;;;10.60;5.90;;;;;;;3.12;78.42;96994.77;105450;1253;61093;-24
2024/01/03 11:32:06;;;;;;;;;;;;;;;2.92;79.00;96999.02;105559;1254;73160;-25
2024/01/03 11:34:39;;;;;;;3.90;2.40;;;;;;;2.69;80.10;96997.89;105554;1258;76031;-24
2024/01/03 11:37:16;;;;;;;5.70;3.60;;;;;;;3.25;78.92;96994.20;105519;1253;73916;-24
2024/01/03 11:39:46;;;;;;;6.20;3.50;;;;;;;3.56;77.36;96986.11;105427;1255;61493;-24
2024/01/03 11:42:20;;;;;;;6.90;4.70;;;;;;;3.38;77.56;96985.39;105607;1253;61089;-24
2024/01/03 11:44:59;;;;;;;6.80;4.60;;;;;;;3.20;78.07;96974.91;105686;1253;75107;-24
2024/01/03 11:47:28;;;;;;;6.10;3.80;;;;;;;2.91;79.15;96972.64;105439;1262;76385;-24
2024/01/03 11:49:56;;;;;;;5.30;3.70;;;;;;;2.79;79.86;96963.69;105508;1254;74975;-24
2024/01/03 11:52:25;;;;;;;3.20;2.30;;;;;;;3.34;78.85;96959.29;105496;1253;62077;-24
2024/01/03 11:54:53;;;;;;;4.60;3.00;;;;;;;3.57;77.74;96957.69;105379;1259;61199;-24
2024/01/03 11:57:21;;;;;;;5.10;3.10;;;;;;;3.46;77.72;96951.98;105230;1260;72281;-24
2024/01/03 11:59:59;;;;;;;4.30;3.30;;;;;;;3.26;78.34;96951.70;105513;1257;73832;-24
2024/01/03 12:02:33;;;;;;;3.30;2.50;;;;;;;3.09;78.72;96951.10;105441;1253;73942;-24
2024/01/03 12:05:02;;;;;;;2.80;1.90;;;;;;;2.84;79.68;96943.77;105568;1258;61905;-24
2024/01/03 12:07:32;;;;;;;3.90;2.90;;;;;;;3.22;79.26;96945.39;105176;1253;61238;-25
2024/01/03 12:10:00;;;;;;;4.40;2.80;;;;;;;3.70;77.68;96939.29;105234;1258;75292;-24
2024/01/03 12:12:28;;;;;;;3.60;2.50;;;;;;;3.65;77.27;96925.46;105624;1258;76677;-24
2024/01/03 12:14:56;;;;;;;4.80;2.70;;;;;;;3.43;77.87;96922.48;105445;1256;71424;-24
2024/01/03 12:17:28;;;;;;;7.50;4.00;;;;;;;3.19;78.58;96922.29;105465;1258;61136;-24
2024/01/03 12:20:09;;;;;;;2.40;2.00;;;;;;;2.98;79.45;96918.07;105191;1261;62531;-24
2024/01/03 12:22:37;;;;;;;4.00;2.50;;;;;;;3.20;79.81;96921.06;105427;1254;71408;-24
2024/01/03 12:25:05;;;;;;;5.10;3.00;;;;;;;3.65;78.13;96922.52;105367;1258;74823;-25
2024/01/03 12:27:34;;;;;;;5.20;3.40;;;;;;;3.69;77.57;96916.66;105664;1258;71617;-24
2024/01/03 12:30:18;;;;;;;3.50;2.60;;;;;;;3.55;77.97;96918.92;105535;1253;61091;-24
2024/01/03 12:32:47;;;;;;;5.20;2.80;;;;;;;3.26;79.00;96919.69;105378;1261;62281;-24
2024/01/03 12:35:15;;;;;;;5.40;3.30;;;;;;;3.08;79.97;96914.20;105243;1253;75289;-24
2024/01/03 12:37:47;;;;;;;8.60;3.10;;;;;;;3.52;79.08;96918.48;105505;1257;76301;-25
2024/01/03 12:40:18;;;;;;;4.40;2.90;;;;;;;3.78;78.00;96917.78;105540;1259;71072;-24
2024/01/03 12:42:46;;;;;;;4.30;3.10;;;;;;;3.67;77.84;96913.73;105357;1256;62792;-24
2024/01/03 12:45:14;;;;;;;6.80;4.20;;;;;;;3.44;78.62;96903.59;105345;1258;61487;-24
2024/01/03 12:47:42;;;;;;;6.20;3.60;;;;;;;3.16;79.60;96896.83;105505;1255;75489;-24
2024/01/03 12:50:09;;;;;;;7.40;3.50;;;;;;;3.16;80.57;96890.66;105536;1257;75716;-24
2024/01/03 12:52:37;;;;;;;4.70;2.90;;;;;;;3.69;79.06;96890.91;105503;1257;73939;-24
2024/01/03 12:55:09;;;;;;;7.10;3.60;;;;;;;3.86;78.08;96886.92;105448;1253;61080;-24
2024/01/03 12:57:36;;;;;;;3.90;2.90;;;;;;;3.75;78.21;96882.33;105411;1254;61100;-25
2024/01/03 13:00:06;;;;;;;6.30;3.30;;;;;;;3.52;78.94;96880.77;105382;1253;75358;-24
2024/01/03 13:02:34;;;;;;;2.90;2.10;;;;;;;3.31;79.63;96886.31;105492;1260;74608;-24
2024/01/03 13:05:02;;;;;;;2.90;2.20;;;;;;;3.15;80.74;96884.95;105558;1258;73695;-24
2024/01/03 13:07:29;;;;;;;4.20;2.60;;;;;;;3.71;79.69;96877.91;105418;1253;61138;-24
2024/01/03 13:09:57;;;;;;;4.20;2.60;;;;;;;3.96;78.38;96867.94;105441;1253;61072;-25
2024/01/03 13:12:25;;;;;;;4.80;2.90;;;;;;;3.97;78.41;96873.60;105321;1255;73621;-25
2024/01/03 13:14:53;;;;;;;6.10;3.40;;;;;;;3.79;78.75;96871.16;105494;1257;74128;-25
2024/01/03 13:17:22;;;;;;;4.40;3.00;;;;;;;3.56;79.23;96866.31;105420;1253;71932;-24
2024/01/03 13:27:32;;;;;;;4.00;2.10;;;;;;;4.05;78.78;96860.65;102662;1295;599390;-25
2024/01/03 13:29:59;;;;;;;5.20;3.10;;;;;;;3.83;79.09;96859.52;104804;1269;61202;-26
2024/01/03 13:32:27;;;;;;;5.10;3.10;;;;;;;3.59;79.83;96852.70;104807;1266;61381;-25
2024/01/03 13:34:55;;;;;;;4.20;2.50;;;;;;;3.37;80.81;96854.92;104724;1267;72109;-25
2024/01/03 13:37:23;;;;;;;3.20;2.00;;;;;;;3.80;80.33;96853.77;104747;1271;77405;-25
2024/01/03 13:39:51;;;;;;;5.90;2.90;;;;;;;4.12;79.12;96846.84;104673;1267;73021;-25
2024/01/03 13:42:19;;;;;;;4.30;2.50;;;;;;;4.06;79.04;96847.98;104647;1263;157729;-26
2024/01/03 13:44:47;;;;;;;2.90;1.90;;;;;;;3.87;79.59;96842.88;104738;1269;61266;-26
2024/01/03 13:47:15;;;;;;;3.40;2.50;;;;;;;3.61;80.47;96846.70;104857;1266;74522;-26
2024/01/03 13:49:42;;;;;;;5.50;2.10;;;;;;;3.45;81.64;96844.98;104788;1266;74066;-26
2024/01/03 13:52:11;;;;;;;4.10;2.10;;;;;;;3.93;80.85;96837.04;104825;1270;72968;-26
2024/01/03 13:54:39;;;;;;;7.70;3.10;;;;;;;4.19;79.52;96836.39;104784;1267;61051;-26
2024/01/03 13:57:06;;;;;;;4.10;2.40;;;;;;;4.05;79.61;96832.70;104856;1266;61062;-26
2024/01/03 13:59:34;;;;;;;3.30;2.60;;;;;;;3.81;80.44;96834.64;104815;1270;73576;-26
2024/01/03 14:02:02;;;;;;;3.30;2.20;;;;;;;3.57;81.56;96838.30;104803;1270;75017;-25
2024/01/03 14:04:30;;;;;;;4.10;2.20;;;;;;;3.73;81.80;96827.62;104789;1266;75001;-25
2024/01/03 14:06:58;;;;;;;2.20;1.70;;;;;;;4.12;80.37;96826.38;104749;1266;61067;-25
2024/01/03 14:09:26;;;;;;;3.70;2.50;;;;;;;4.13;80.08;96822.69;104742;1270;61189;-26
2024/01/03 14:11:53;;;;;;;3.30;2.30;;;;;;;3.98;80.49;96823.30;104741;1268;75115;-25
2024/01/03 14:14:25;;;;;;;5.30;3.30;;;;;;;3.72;81.28;96826.45;104763;1270;76589;-25
2024/01/03 14:16:55;;;;;;;3.50;2.10;;;;;;;3.63;82.70;96826.10;104833;1267;71858;-26
2024/01/03 14:19:23;;;;;;;3.30;2.40;;;;;;;4.12;81.31;96827.95;104830;1269;61639;-23
2024/01/03 14:21:51;;;;;;;5.00;1.90;;;;;;;4.29;80.14;96832.38;104833;1266;61221;-23
2024/01/03 14:24:19;;;;;;;3.00;2.00;;;;;;;4.04;80.99;96829.45;104812;1266;72837;-23
2024/01/03 14:26:46;;;;;;;6.30;3.00;;;;;;;3.84;81.75;96831.09;104806;1266;74226;-23
2024/01/03 14:29:14;;;;;;;3.90;2.20;;;;;;;3.79;82.65;96831.73;104775;1267;71606;-26
2024/01/03 14:31:43;;;;;;;2.80;1.80;;;;;;;4.29;81.12;96833.84;104775;1270;61157;-26
2024/01/03 14:34:11;;;;;;;5.10;3.30;;;;;;;4.36;80.47;96827.80;104802;1267;61173;-24
2024/01/03 14:36:39;;;;;;;5.50;3.30;;;;;;;4.19;80.76;96824.73;104796;1267;72612;-24
2024/01/03 14:39:10;;;;;;;4.60;2.70;;;;;;;3.95;81.99;96826.71;104879;1267;76370;-24
2024/01/03 14:41:38;;;;;;;4.70;2.60;;;;;;;3.88;83.14;96827.08;104790;1270;72684;-24
2024/01/03 14:44:09;;;;;;;4.40;2.80;;;;;;;4.48;81.13;96824.89;104757;1267;61656;-24
2024/01/03 14:46:37;;;;;;;4.90;1.50;;;;;;;4.69;79.87;96817.45;104811;1270;62013;-25
2024/01/03 14:49:05;;;;;;;4.40;2.80;;;;;;;4.49;80.09;96817.04;104869;1269;74934;-25
2024/01/03 14:51:33;;;;;;;3.60;1.90;;;;;;;4.23;80.98;96818.84;104823;1270;73637;-24
2024/01/03 14:54:01;;;;;;;3.80;2.30;;;;;;;3.90;82.38;96814.21;104894;1267;72282;-24
2024/01/03 14:56:29;;;;;;;3.30;2.40;;;;;;;4.16;82.33;96815.02;104815;1266;61227;-24
2024/01/03 14:58:57;;;;;;;8.10;2.80;;;;;;;4.28;82.18;96817.02;104871;1269;61195;-24
2024/01/03 15:01:26;;;;;;;5.50;2.90;;;;;;;4.43;81.41;96806.23;104768;1270;73018;-24
2024/01/03 15:03:54;;;;;;;3.90;2.10;;;;;;;4.21;81.46;96804.25;104746;1266;74250;-24
2024/01/03 15:06:22;;;;;;;6.40;2.10;;;;;;;3.95;82.74;96805.56;104747;1267;72110;-24
2024/01/03 15:08:53;;;;;;;3.80;2.40;;;;;;;4.27;82.47;96807.22;104919;1265;61276;-24
2024/01/03 15:11:21;;;;;;;4.60;2.80;;;;;;;4.55;81.27;96807.90;104849;1265;61468;-24
2024/01/03 15:13:49;;;;;;;6.80;3.40;;;;;;;4.42;81.75;96803.72;105018;1266;73516;-24
2024/01/03 15:16:16;;;;;;;7.20;3.70;;;;;;;4.25;82.77;96806.63;104755;1267;75425;-24
2024/01/03 15:18:44;;;;;;;4.00;2.40;;;;;;;4.17;83.16;96798.78;104825;1267;73982;-24
2024/01/03 15:21:12;;;;;;;6.10;3.10;;;;;;;4.60;82.04;96799.52;104808;1271;62621;-24
2024/01/03 15:23:40;;;;;;;3.40;2.10;;;;;;;4.75;81.20;96795.04;104800;1271;61180;-24
2024/01/03 15:26:09;;;;;;;4.50;3.40;;;;;;;4.66;81.35;96796.38;104819;1270;72775;-24
2024/01/03 15:28:37;;;;;;;2.10;1.70;;;;;;;4.47;81.65;96791.44;104871;1269;74602;-24
2024/01/03 15:31:05;;;;;;;4.90;2.70;;;;;;;4.21;82.52;96788.11;104999;1267;72576;-24
2024/01/03 15:33:33;;;;;;;5.60;3.20;;;;;;;4.32;83.75;96787.52;104801;1267;61080;-24
2024/01/03 15:36:01;;;;;;;5.90;2.90;;;;;;;4.63;82.81;96789.65;104817;1267;61086;-24
2024/01/03 15:38:29;;;;;;;5.30;2.80;;;;;;;4.81;81.39;96782.84;104771;1267;72098;-24
2024/01/03 15:40:58;;;;;;;5.10;3.20;;;;;;;4.54;81.57;96771.55;104671;1270;73132;-24
2024/01/03 15:43:28;;;;;;;5.40;3.10;;;;;;;4.26;82.34;96769.52;104815;1267;72303;-24
2024/01/03 15:45:56;;;;;;;2.80;2.20;;;;;;;4.52;82.25;96772.96;104821;1266;61456;-24
2024/01/03 15:48:24;;;;;;;4.70;3.00;;;;;;;4.88;81.59;96772.39;104893;1265;61020;-24
2024/01/03 15:50:52;;;;;;;6.20;3.70;;;;;;;4.97;80.90;96768.30;104816;1270;72895;-24
2024/01/03 15:53:20;;;;;;;4.60;3.40;;;;;;;4.82;80.82;96768.27;104853;1270;74398;-24
2024/01/03 15:55:48;;;;;;;5.30;2.70;;;;;;;4.56;81.63;96767.73;104796;1267;74644;-24
2024/01/03 15:58:15;;;;;;;4.50;2.50;;;;;;;4.34;83.89;96764.77;104878;1269;61075;-24
2024/01/03 16:00:43;;;;;;;5.20;2.90;;;;;;;4.89;82.20;96762.14;105159;1263;61092;-23
2024/01/03 16:03:11;;;;;;;5.40;3.40;;;;;;;5.03;80.70;96757.91;105043;1263;75063;-24
2024/01/03 16:05:39;;;;;;;4.10;3.00;;;;;;;4.87;81.42;96755.06;104987;1268;73579;-24
2024/01/03 16:08:07;;;;;;;5.40;3.20;;;;;;;4.67;82.22;96757.48;104979;1265;72322;-24
2024/01/03 16:10:35;;;;;;;7.10;3.50;;;;;;;4.59;83.60;96754.75;104933;1269;61132;-24
2024/01/03 16:13:03;;;;;;;5.70;3.00;;;;;;;5.02;82.21;96748.48;104885;1263;61164;-23
2024/01/03 16:15:30;;;;;;;4.70;2.90;;;;;;;4.87;82.95;96745.10;104949;1263;73076;-24
2024/01/03 16:17:58;;;;;;;7.40;3.10;;;;;;;4.76;83.48;96745.98;105095;1263;76222;-23
2024/01/03 16:20:26;;;;;;;6.20;2.80;;;;;;;4.55;84.55;96741.37;105089;1267;72971;-23
2024/01/03 16:22:54;;;;;;;4.80;2.90;;;;;;;4.73;85.03;96741.79;104836;1267;62242;-23
2024/01/03 16:25:22;;;;;;;4.70;3.20;;;;;;;5.10;83.43;96738.34;104960;1263;61073;-23
2024/01/03 16:27:50;;;;;;;6.40;3.60;;;;;;;5.11;83.10;96735.05;104981;1269;73883;-23
2024/01/03 16:30:18;;;;;;;5.30;3.40;;;;;;;4.91;84.28;96740.45;105005;1266;74032;-23
2024/01/03 16:32:48;;;;;;;5.10;3.10;;;;;;;4.68;85.47;96742.27;105054;1263;74648;-23
2024/01/03 16:35:16;;;;;;;3.60;2.60;;;;;;;4.70;86.74;96738.95;104989;1266;61097;-23
2024/01/03 16:37:47;;;;;;;5.10;3.10;;;;;;;5.32;83.85;96738.39;104977;1266;62038;-23
2024/01/03 16:40:14;;;;;;;3.60;2.40;;;;;;;5.42;83.09;96737.01;104995;1267;75429;-23
2024/01/03 16:42:42;;;;;;;7.70;3.20;;;;;;;5.25;83.58;96732.23;105103;1268;77157;-23
2024/01/03 16:45:10;;;;;;;5.60;3.20;;;;;;;4.95;85.79;96726.98;105104;1262;71528;-23
2024/01/03 16:47:38;;;;;;;4.10;2.50;;;;;;;5.09;86.08;96728.23;104868;1267;61183;-23
2024/01/03 16:50:08;;;;;;;5.50;3.00;;;;;;;5.57;84.27;96727.92;104891;1267;61253;-23
2024/01/03 16:52:39;;;;;;;4.00;2.80;;;;;;;5.88;82.85;96722.90;104933;1270;73100;-23
2024/01/03 16:55:07;;;;;;;4.60;2.50;;;;;;;5.60;83.81;96715.73;105172;1267;74941;-24
2024/01/03 16:57:34;;;;;;;5.00;2.60;;;;;;;5.41;84.98;96718.70;105133;1266;73644;-23
2024/01/03 17:00:04;;;;;;;6.90;2.40;;;;;;;5.54;85.08;96718.25;105136;1262;61237;-22
2024/01/03 17:02:33;;;;;;;2.80;1.80;;;;;;;6.17;82.66;96716.08;104855;1262;61048;-22
2024/01/03 17:05:02;;;;;;;4.00;2.20;;;;;;;6.16;82.93;96706.50;105095;1263;73087;-23
2024/01/03 17:07:31;;;;;;;3.60;2.10;;;;;;;6.07;82.99;96710.35;105151;1263;75719;-23
2024/01/03 17:10:03;;;;;;;4.80;2.50;;;;;;;5.95;83.56;96712.88;105038;1264;74666;-23
2024/01/03 17:12:32;;;;;;;5.90;2.40;;;;;;;5.88;84.91;96714.21;105120;1267;62504;-23
2024/01/03 17:15:00;;;;;;;5.20;2.10;;;;;;;6.35;83.49;96719.60;105208;1267;62273;-23
2024/01/03 17:17:28;;;;;;;3.40;2.10;;;;;;;6.54;82.69;96720.77;105180;1263;75411;-23
2024/01/03 17:19:56;;;;;;;2.70;1.90;;;;;;;6.36;83.00;96714.50;105133;1267;74234;-23
2024/01/03 17:22:24;;;;;;;2.80;1.70;;;;;;;6.20;83.83;96715.38;105163;1267;72786;-23
2024/01/03 17:24:52;;;;;;;2.10;1.40;;;;;;;6.29;84.30;96715.21;105192;1266;62745;-23
2024/01/03 17:27:20;;;;;;;1.80;1.30;;;;;;;6.80;82.96;96709.88;105105;1267;61103;-23
2024/01/03 17:29:49;;;;;;;2.50;1.50;;;;;;;6.82;82.63;96705.91;105228;1264;74155;-24
2024/01/03 17:32:17;;;;;;;3.20;1.60;;;;;;;6.67;83.42;96699.11;105226;1263;74243;-24
2024/01/03 17:34:45;;;;;;;2.60;1.70;;;;;;;6.55;83.86;96702.28;105203;1263;71797;-23
2024/01/03 17:37:15;;;;;;;4.70;1.50;;;;;;;6.56;84.50;96701.44;105212;1263;62342;-23
2024/01/03 17:39:46;;;;;;;2.50;1.50;;;;;;;7.00;83.04;96705.02;105218;1263;62451;-22
2024/01/03 17:42:13;;;;;;;2.50;1.80;;;;;;;7.20;81.89;96704.69;105133;1267;75437;-22
2024/01/03 17:44:41;;;;;;;2.60;1.20;;;;;;;7.06;81.96;96700.53;104983;1268;76027;-22
2024/01/03 17:47:09;;;;;;;2.40;1.60;;;;;;;6.81;82.98;96704.77;105089;1266;74129;-22
2024/01/03 17:49:37;;;;;;;2.20;1.40;;;;;;;6.72;83.82;96698.31;105124;1263;61363;-22
2024/01/03 17:52:05;;;;;;;1.80;1.30;;;;;;;7.20;82.70;96698.66;105226;1263;62382;-22
2024/01/03 17:54:34;;;;;;;2.20;1.20;;;;;;;7.39;81.38;96701.67;105180;1263;75682;-22
2024/01/03 17:57:03;;;;;;;1.40;1.30;;;;;;;7.20;82.19;96710.54;104999;1263;74483;-21
2024/01/03 17:59:31;;;;;;;2.70;1.80;;;;;;;7.06;82.63;96713.61;105166;1264;71731;-22
2024/01/03 18:02:02;;;;;;;2.00;1.00;;;;;;;6.87;83.85;96717.08;104986;1263;61039;-22
2024/01/03 18:04:30;;;;;;;1.50;1.20;;;;;;;7.35;82.80;96708.64;105155;1268;61166;-22
2024/01/03 18:06:58;;;;;;;2.10;1.60;;;;;;;7.55;81.32;96715.20;105079;1263;74127;-22
2024/01/03 18:09:26;;;;;;;2.10;1.40;;;;;;;7.46;81.53;96709.41;105000;1267;74205;-22
2024/01/03 18:11:54;;;;;;;2.00;1.50;;;;;;;7.15;82.76;96709.43;105136;1260;72650;-22
2024/01/03 18:14:22;;;;;;;2.50;1.50;;;;;;;7.07;83.76;96717.09;105123;1260;63585;-22
2024/01/03 18:16:50;;;;;;;2.80;1.40;;;;;;;7.51;82.33;96714.63;105270;1262;61175;-21
2024/01/03 18:19:17;;;;;;;2.80;1.60;;;;;;;7.59;81.51;96715.09;105461;1258;76031;-22
2024/01/03 18:21:45;;;;;;;4.20;1.90;;;;;;;7.45;81.89;96714.06;105468;1258;75598;-21
2024/01/03 18:24:13;;;;;;;2.50;1.60;;;;;;;7.24;82.49;96725.02;105354;1257;71283;-21
2024/01/03 18:34:39;;;;;;;2.60;1.50;;;;;;;7.75;80.73;96727.96;102586;1296;614605;-22
2024/01/03 18:37:06;;;;;;;2.10;1.50;;;;;;;7.51;81.48;96730.52;105078;1264;61100;-21
2024/01/03 18:39:33;;;;;;;2.00;1.40;;;;;;;7.30;82.59;96729.06;105197;1264;61059;-22
2024/01/03 18:42:00;;;;;;;1.60;1.50;;;;;;;7.54;82.42;96727.08;105146;1264;73061;-21
2024/01/03 18:44:29;;;;;;;2.10;1.40;;;;;;;7.88;80.61;96734.23;104900;1267;74075;-22
2024/01/03 18:46:57;;;;;;;2.20;1.40;;;;;;;7.75;80.69;96729.13;104649;1267;206735;-22
2024/01/03 18:49:24;;;;;;;1.90;1.70;;;;;;;7.57;81.28;96724.96;104773;1264;61098;-21
2024/01/03 18:51:51;;;;;;;2.80;1.50;;;;;;;7.40;82.82;96729.93;104884;1267;61177;-22
2024/01/03 18:54:19;;;;;;;2.40;1.50;;;;;;;7.87;81.12;96723.41;105238;1264;72908;-22
2024/01/03 18:56:46;;;;;;;1.70;1.30;;;;;;;7.90;80.29;96725.58;105174;1264;74205;-21
2024/01/03 18:59:14;;;;;;;2.10;1.60;;;;;;;7.67;81.20;96720.73;105036;1267;73596;-22
2024/01/03 19:01:42;;;;;;;2.80;1.60;;;;;;;7.55;81.58;96722.15;104950;1263;62018;-22
2024/01/03 19:04:14;;;;;;;2.00;1.50;;;;;;;7.34;82.81;96723.10;105176;1270;61113;-22
2024/01/03 19:06:41;;;;;;;2.40;1.30;;;;;;;7.71;81.31;96726.19;105109;1268;73024;-22
2024/01/03 19:09:08;;;;;;;3.00;2.00;;;;;;;7.67;80.69;96722.59;105170;1264;74041;-22
2024/01/03 19:11:37;;;;;;;1.60;1.10;;;;;;;7.58;81.24;96727.79;105103;1266;72662;-22
2024/01/03 19:14:04;;;;;;;2.00;1.40;;;;;;;7.41;82.04;96735.70;104928;1264;61058;-22
2024/01/03 19:16:34;;;;;;;1.90;1.40;;;;;;;7.37;82.76;96731.23;104852;1277;61762;-22
2024/01/03 19:19:04;;;;;;;2.10;1.60;;;;;;;7.90;80.66;96721.20;105199;1269;72617;-22
2024/01/03 19:21:32;;;;;;;2.00;1.20;;;;;;;8.03;79.58;96719.94;104970;1273;73725;-22
2024/01/03 19:23:59;;;;;;;3.90;1.50;;;;;;;7.79;79.95;96719.05;105070;1270;71846;-22
2024/01/03 19:26:27;;;;;;;2.10;1.50;;;;;;;7.49;80.80;96716.17;105177;1264;61074;-22
2024/01/03 19:28:54;;;;;;;2.80;1.50;;;;;;;7.24;81.72;96712.96;104814;1269;61239;-22
2024/01/03 19:31:21;;;;;;;2.50;1.20;;;;;;;7.48;81.16;96720.48;105226;1264;73291;-22
2024/01/03 19:33:50;;;;;;;3.00;1.60;;;;;;;7.61;80.19;96719.82;105221;1267;75855;-22
2024/01/03 19:36:18;;;;;;;2.50;1.30;;;;;;;7.55;80.32;96715.70;104879;1269;71049;-22
2024/01/03 19:38:48;;;;;;;2.60;1.70;;;;;;;7.36;80.70;96719.05;104964;1264;61205;-22
2024/01/03 19:41:18;;;;;;;2.00;1.30;;;;;;;7.13;81.82;96725.45;104950;1264;61142;-22
2024/01/03 19:43:47;;;;;;;1.50;1.20;;;;;;;7.48;81.03;96717.34;104916;1269;74258;-23
2024/01/03 19:46:15;;;;;;;2.90;1.40;;;;;;;7.67;79.47;96712.77;104860;1273;74274;-23
2024/01/03 19:48:42;;;;;;;2.30;1.60;;;;;;;7.57;79.63;96723.29;104859;1264;73400;-22
2024/01/03 19:51:17;;;;;;;2.50;1.50;;;;;;;7.32;80.16;96725.20;105204;1264;60958;-22
2024/01/03 19:53:46;;;;;;;2.60;1.80;;;;;;;7.07;81.35;96724.37;104783;1264;61125;-22
2024/01/03 19:56:14;;;;;;;2.20;1.40;;;;;;;7.04;82.06;96724.27;105600;1263;72379;-24
2024/01/03 19:58:40;;;;;;;2.50;1.70;;;;;;;7.45;80.61;96726.15;105523;1260;73784;-23
2024/01/03 20:01:08;;;;;;;2.20;1.40;;;;;;;7.46;79.84;96723.76;105332;1260;73024;-22
2024/01/03 20:03:35;;;;;;;4.40;1.60;;;;;;;7.39;79.98;96721.20;105498;1260;61095;-22
2024/01/03 20:06:02;;;;;;;1.90;1.50;;;;;;;7.19;80.74;96727.59;105565;1256;61028;-23
2024/01/03 20:08:31;;;;;;;3.10;1.30;;;;;;;7.01;81.87;96725.35;105717;1259;72406;-22
2024/01/03 20:11:03;;;;;;;3.60;1.70;;;;;;;7.40;80.66;96728.86;105862;1254;73322;-23
2024/01/03 20:13:30;;;;;;;1.70;1.30;;;;;;;7.57;79.39;96725.91;105711;1257;72725;-23
2024/01/03 20:15:57;;;;;;;2.80;1.30;;;;;;;7.42;79.79;96730.52;105608;1257;61007;-23
2024/01/03 20:18:24;;;;;;;3.10;1.50;;;;;;;7.24;80.23;96737.11;105676;1257;61127;-22
2024/01/03 20:20:52;;;;;;;1.70;1.10;;;;;;;7.07;80.90;96743.17;105827;1257;73211;-22
2024/01/03 20:23:19;;;;;;;1.70;1.30;;;;;;;7.40;80.09;96740.29;105802;1254;74175;-23
2024/01/03 20:25:46;;;;;;;1.40;1.20;;;;;;;7.72;78.75;96742.06;105622;1256;73971;-23
2024/01/03 20:28:13;;;;;;;2.70;1.40;;;;;;;7.69;78.34;96743.77;105515;1254;61803;-23
2024/01/03 20:30:40;;;;;;;1.90;1.40;;;;;;;7.38;79.18;96745.68;105746;1254;61160;-23
2024/01/03 20:33:07;;;;;;;2.60;2.00;;;;;;;7.14;80.33;96743.80;105914;1256;71928;-23
2024/01/03 20:35:35;;;;;;;1.20;1.00;;;;;;;7.20;80.40;96751.47;105891;1257;74490;-23
2024/01/03 20:38:02;;;;;;;1.80;1.20;;;;;;;7.51;78.72;96747.73;105872;1257;72403;-23
2024/01/03 20:40:29;;;;;;;2.10;1.10;;;;;;;7.47;78.68;96744.23;105822;1254;61210;-23
2024/01/03 20:42:57;;;;;;;1.90;1.40;;;;;;;7.22;79.73;96746.84;105800;1257;61093;-23
2024/01/03 20:45:24;;;;;;;3.20;1.50;;;;;;;7.06;80.45;96758.11;105891;1257;73063;-23
2024/01/03 20:47:50;;;;;;;5.50;1.10;;;;;;;7.06;80.74;96756.56;105813;1258;74252;-23
2024/01/03 20:50:18;;;;;;;0.90;0.80;;;;;;;7.46;79.63;96752.26;105619;1255;73463;-23